Terminal Aerodrome Forecast
Issued by NWS

Home | Current Version | Previous Version | Text Only | Print | Product List | Glossary On
Versions: 1 2 3 4 5 6 7 8 9 10 11 12 13
000
FTUS43 KOAX 241100
TAFSNY
TAF
KSNY 241120Z 2412/2512 30015KT P6SM SKC
     FM241500 31020G33KT P6SM SKC
     FM250000 27011KT P6SM BKN120
     FM250400 24009KT P6SM SCT120=

USA.gov is the U.S. government's official web portal to all federal, state and local government web resources and services.